createdAt,value
2022-07-27T05:56:46.225Z,100.00
2022-07-27T06:27:37.665Z,100.00
2022-07-27T06:30:05.941Z,100.00
2022-07-27T06:32:33.346Z,100.00
2022-07-27T06:35:02.217Z,100.00
2022-07-27T06:37:31.231Z,100.00
2022-07-27T06:47:11.326Z,100.00
2022-07-27T06:59:00.611Z,100.00
2022-07-27T07:01:28.472Z,100.00
2022-07-27T07:06:46.931Z,100.00
2022-07-27T07:09:14.473Z,100.00
2022-07-27T07:11:42.134Z,100.00
2022-07-27T07:15:00.481Z,100.00
2022-07-27T07:17:01.787Z,100.00
2022-07-27T07:25:28.209Z,100.00
2022-07-27T07:27:59.892Z,99.36
2022-07-27T07:30:28.063Z,100.00
2022-07-27T07:32:56.377Z,98.84
2022-07-27T07:35:24.081Z,100.00
2022-07-27T07:37:52.006Z,100.00
2022-07-27T07:40:51.599Z,100.00
2022-07-27T07:43:21.584Z,100.00
2022-07-27T07:45:51.343Z,100.00
2022-07-27T07:48:22.904Z,99.15
2022-07-27T07:51:23.891Z,97.38
2022-07-27T07:53:53.452Z,97.38
2022-07-27T07:56:20.738Z,97.74
2022-07-27T07:58:48.887Z,94.55
2022-07-27T08:01:16.266Z,94.42
2022-07-27T08:03:50.285Z,94.86
2022-07-27T08:06:21.376Z,94.14
2022-07-27T08:08:48.689Z,92.24
2022-07-27T08:11:16.140Z,90.52
2022-07-27T08:13:43.657Z,89.91
2022-07-27T08:16:21.427Z,88.84
2022-07-27T08:18:49.035Z,89.12
2022-07-27T08:21:16.492Z,89.04
2022-07-27T08:23:43.882Z,86.37
2022-07-27T08:26:11.180Z,85.53
2022-07-27T08:28:38.630Z,83.98
2022-07-27T08:31:12.135Z,82.47
2022-07-27T08:33:42.708Z,83.12
2022-07-27T08:36:10.094Z,80.60
2022-07-27T08:38:37.433Z,78.91
2022-07-27T08:41:06.915Z,78.67
2022-07-27T08:43:34.634Z,77.68
2022-07-27T08:46:02.152Z,76.26
2022-07-27T08:48:31.319Z,76.09
2022-07-27T08:50:58.778Z,76.30
2022-07-27T08:53:52.101Z,77.25
2022-07-27T08:56:14.597Z,78.54
2022-07-27T08:58:54.783Z,81.29
2022-07-27T09:01:25.273Z,79.65
2022-07-27T09:03:55.963Z,79.07
2022-07-27T09:06:42.752Z,78.29
2022-07-27T09:09:12.363Z,76.24
2022-07-27T09:11:40.553Z,76.96
2022-07-27T09:14:13.015Z,77.45
2022-07-27T09:17:28.629Z,77.71
2022-07-27T09:19:27.789Z,75.61
2022-07-27T09:21:55.068Z,74.53
2022-07-27T09:24:45.638Z,75.01
2022-07-27T09:27:09.860Z,75.83
2022-07-27T09:29:37.262Z,75.69
2022-07-27T09:32:17.606Z,74.36
2022-07-27T09:34:45.270Z,72.39
2022-07-27T09:37:27.315Z,71.95
2022-07-27T09:40:15.226Z,71.70
2022-07-27T09:43:07.350Z,71.64
2022-07-27T09:45:35.496Z,71.74
2022-07-27T09:48:18.156Z,69.96
2022-07-27T09:51:43.504Z,70.74
2022-07-27T09:53:57.578Z,69.28
2022-07-27T09:56:31.975Z,69.96
2022-07-27T09:59:01.895Z,68.65
2022-07-27T10:01:35.285Z,66.29
2022-07-27T10:04:05.902Z,68.52
2022-07-27T10:06:53.594Z,66.32
2022-07-27T10:09:21.392Z,67.12
2022-07-27T10:11:49.362Z,66.13
2022-07-27T10:14:16.772Z,67.20
2022-07-27T10:16:49.680Z,66.95
2022-07-27T10:19:20.117Z,67.65
2022-07-27T10:22:04.601Z,66.92
2022-07-27T10:24:55.807Z,67.22
2022-07-27T10:27:30.643Z,66.08
2022-07-27T10:30:36.068Z,65.50
2022-07-27T11:55:26.666Z,51.77
2022-07-27T12:03:46.200Z,50.69
2022-07-27T12:06:17.689Z,50.93
2022-07-27T12:21:31.880Z,48.28
2022-07-27T12:24:51.356Z,48.00
2022-07-27T12:27:19.012Z,46.40
2022-07-27T12:30:04.614Z,47.40
2022-07-27T12:32:35.182Z,46.47
2022-07-27T12:35:16.697Z,46.16
2022-07-27T12:37:44.596Z,45.39
2022-07-27T12:40:17.495Z,45.58
2022-07-27T12:42:45.799Z,44.96
2022-07-27T12:45:16.916Z,44.64
2022-07-27T12:47:44.880Z,43.89
2022-07-27T12:50:16.180Z,44.69
2022-07-27T12:52:51.013Z,45.88
2022-07-27T12:55:23.606Z,46.12
2022-07-27T12:57:56.537Z,45.95
2022-07-27T13:00:33.674Z,47.49
2022-07-27T13:03:03.372Z,46.30
2022-07-27T13:05:31.573Z,45.13
2022-07-27T13:07:59.256Z,45.78
2022-07-27T13:10:27.323Z,45.19
2022-07-27T13:12:57.904Z,45.58
2022-07-27T13:15:25.848Z,46.05
2022-07-27T13:17:53.131Z,45.30
2022-07-27T13:20:20.765Z,45.70
2022-07-27T13:22:51.358Z,45.60
2022-07-27T13:25:18.960Z,44.84
2022-07-27T13:27:47.541Z,44.42
2022-07-27T13:30:16.810Z,44.34
2022-07-27T13:32:44.884Z,44.24
2022-07-27T13:35:13.054Z,44.27
2022-07-27T13:37:41.353Z,44.36
2022-07-27T13:40:09.934Z,44.91
2022-07-27T13:47:10.408Z,45.16
2022-07-27T13:49:37.774Z,44.66
2022-07-27T13:52:05.432Z,44.67
2022-07-27T13:54:32.873Z,43.73
2022-07-27T13:57:02.700Z,43.55
2022-07-27T13:59:30.243Z,42.72
2022-07-27T14:01:57.715Z,41.88
2022-07-27T14:04:25.165Z,41.29
2022-07-27T14:06:53.308Z,41.60
2022-07-27T14:10:29.458Z,42.29
2022-07-27T14:13:08.215Z,41.91
2022-07-27T14:15:53.306Z,41.90
2022-07-27T14:18:24.475Z,41.93
2022-07-27T14:20:51.967Z,42.22
2022-07-27T14:23:19.288Z,41.80
2022-07-27T14:25:46.647Z,42.67
2022-07-27T14:28:13.995Z,44.21
2022-07-27T14:30:41.298Z,44.02
2022-07-27T14:33:08.659Z,44.74
2022-07-27T14:35:40.511Z,44.61
2022-07-27T14:38:09.691Z,43.74
2022-07-27T14:40:37.530Z,42.60
2022-07-27T14:43:05.432Z,41.41
2022-07-27T14:45:44.759Z,41.04
2022-07-27T14:48:28.270Z,40.76
2022-07-27T14:51:04.466Z,40.78
2022-07-27T14:53:31.915Z,41.33
2022-07-27T14:55:59.428Z,41.40
2022-07-27T14:58:47.861Z,41.66
2022-07-27T15:01:16.855Z,43.22
2022-07-27T15:03:44.814Z,42.40
2022-07-27T15:06:12.586Z,40.03
2022-07-27T15:08:40.055Z,41.21
2022-07-27T15:15:21.029Z,30.13
2022-07-27T15:17:54.433Z,33.78
2022-07-27T15:20:21.814Z,31.93
2022-07-27T15:22:49.516Z,25.80
2022-07-27T15:25:18.237Z,22.97
2022-07-27T15:27:49.325Z,24.23
2022-07-27T15:30:22.262Z,33.84
2022-07-27T15:32:49.746Z,35.61
2022-07-27T15:35:17.170Z,35.71
2022-07-27T15:37:54.157Z,31.77
2022-07-27T15:40:38.647Z,33.24
2022-07-27T15:43:57.496Z,24.58
2022-07-27T18:14:52.470Z,38.06
2022-07-27T18:17:51.656Z,40.69
2022-07-27T18:24:30.654Z,41.74
2022-07-27T18:36:10.678Z,43.07
2022-07-27T18:42:56.195Z,43.76
2022-07-27T18:46:30.715Z,43.81
2022-07-27T18:53:04.789Z,43.46
2022-07-27T18:56:45.803Z,44.26
2022-07-27T19:00:08.122Z,43.34
2022-07-27T19:07:15.990Z,44.16
2022-07-27T19:10:58.025Z,44.33
2022-07-27T19:26:41.752Z,45.51
2022-07-27T19:29:31.952Z,44.76
2022-07-27T19:32:30.304Z,45.06
2022-07-27T23:14:03.089Z,57.05
